createdAt,value
2022-11-09T00:00:07.758Z,11.18
2022-11-09T00:02:34.516Z,21.33
2022-11-09T00:05:01.319Z,16.77
2022-11-09T00:07:30.684Z,15.87
2022-11-09T00:09:57.494Z,12.50
2022-11-09T00:12:24.366Z,16.87
2022-11-09T00:14:51.177Z,13.52
2022-11-09T00:17:17.977Z,19.55
2022-11-09T00:19:44.797Z,19.83
2022-11-09T00:22:12.359Z,19.00
2022-11-09T00:24:39.119Z,18.10
2022-11-09T00:27:05.914Z,14.10
2022-11-09T00:29:32.713Z,14.65
2022-11-09T00:31:59.473Z,16.33
2022-11-09T00:34:26.246Z,18.10
2022-11-09T00:36:53.033Z,18.05
2022-11-09T00:39:19.856Z,12.57
2022-11-09T00:41:47.638Z,13.05
2022-11-09T00:44:14.482Z,17.15
2022-11-09T00:46:41.341Z,14.43
2022-11-09T00:49:08.093Z,21.70
2022-11-09T00:51:34.880Z,14.47
2022-11-09T00:54:01.726Z,21.03
2022-11-09T00:56:28.522Z,21.38
2022-11-09T00:58:56.057Z,23.40
2022-11-09T01:01:23.054Z,17.63
2022-11-09T01:03:49.906Z,14.53
2022-11-09T01:06:21.768Z,18.60
2022-11-09T01:08:48.727Z,16.08
2022-11-09T01:11:15.795Z,15.53
2022-11-09T01:13:42.662Z,18.10
2022-11-09T01:16:12.058Z,18.83
2022-11-09T01:18:39.246Z,18.42
2022-11-09T01:21:07.244Z,15.88
2022-11-09T01:23:34.180Z,15.90
2022-11-09T01:26:02.958Z,13.35
2022-11-09T01:28:29.730Z,18.03
2022-11-09T01:30:56.569Z,15.57
2022-11-09T01:33:23.493Z,21.50
2022-11-09T01:35:50.263Z,19.75
2022-11-09T01:38:17.027Z,17.10
2022-11-09T01:40:43.817Z,14.50
2022-11-09T01:43:21.352Z,16.08
2022-11-09T01:45:56.902Z,21.05
2022-11-09T01:48:29.857Z,16.27
2022-11-09T01:51:02.117Z,16.63
2022-11-09T01:53:31.291Z,13.20
2022-11-09T01:56:00.768Z,13.20
2022-11-09T01:58:49.578Z,13.07
2022-11-09T02:01:16.534Z,12.10
2022-11-09T02:03:47.014Z,16.80
2022-11-09T02:06:14.722Z,10.13
2022-11-09T02:08:41.515Z,11.73
2022-11-09T02:11:19.402Z,13.50
2022-11-09T02:13:54.090Z,15.15
2022-11-09T02:16:20.940Z,14.20
2022-11-09T02:18:53.285Z,12.77
2022-11-09T02:21:21.020Z,11.13
2022-11-09T02:23:47.873Z,12.00
2022-11-09T02:26:22.170Z,15.20
2022-11-09T02:28:48.956Z,14.53
2022-11-09T02:31:16.106Z,16.40
2022-11-09T02:33:44.864Z,13.20
2022-11-09T02:36:11.754Z,10.30
2022-11-09T02:38:38.533Z,14.03
2022-11-09T02:41:05.524Z,11.07
2022-11-09T02:43:32.353Z,8.87
2022-11-09T02:45:59.097Z,15.93
2022-11-09T02:48:26.006Z,10.40
2022-11-09T02:50:52.757Z,14.17
2022-11-09T02:53:21.233Z,12.67
2022-11-09T02:55:48.361Z,8.43
2022-11-09T02:58:15.167Z,8.37
2022-11-09T03:00:42.211Z,9.93
2022-11-09T03:03:09.169Z,15.53
2022-11-09T03:05:35.985Z,12.07
2022-11-09T03:08:02.820Z,12.40
2022-11-09T03:10:29.700Z,13.50
2022-11-09T03:12:56.457Z,12.87
2022-11-09T03:15:23.234Z,12.60
2022-11-09T03:17:50.030Z,9.53
2022-11-09T03:20:17.040Z,11.43
2022-11-09T03:22:43.819Z,10.63
2022-11-09T03:25:10.622Z,23.60
2022-11-09T03:27:37.396Z,19.13
2022-11-09T03:30:04.484Z,18.87
2022-11-09T03:32:31.287Z,13.73
2022-11-09T03:34:58.038Z,14.40
2022-11-09T03:37:24.850Z,16.27
2022-11-09T03:39:51.670Z,15.50
2022-11-09T03:42:18.459Z,15.67
2022-11-09T03:44:45.229Z,16.77
2022-11-09T03:47:12.017Z,14.33
2022-11-09T03:49:38.945Z,12.87
2022-11-09T03:52:05.729Z,17.35
2022-11-09T03:54:32.561Z,20.87
2022-11-09T03:56:59.397Z,15.17
2022-11-09T03:59:26.231Z,18.60
2022-11-09T04:01:53.120Z,15.93
2022-11-09T04:04:19.941Z,14.93
2022-11-09T04:06:46.727Z,12.77
2022-11-09T04:09:13.592Z,16.13
2022-11-09T04:11:40.360Z,17.37
2022-11-09T04:14:07.241Z,18.40
2022-11-09T04:16:34.008Z,23.83
2022-11-09T04:19:00.796Z,23.23
2022-11-09T04:21:27.651Z,21.80
2022-11-09T04:23:54.418Z,20.57
2022-11-09T04:26:21.192Z,22.50
2022-11-09T04:28:48.044Z,21.87
2022-11-09T04:31:14.860Z,24.23
2022-11-09T04:33:41.628Z,24.07
2022-11-09T04:36:08.958Z,23.07
2022-11-09T04:38:36.632Z,27.60
2022-11-09T04:41:04.029Z,29.30
2022-11-09T04:43:30.846Z,25.63
2022-11-09T04:46:02.860Z,26.53
2022-11-09T04:48:30.545Z,28.60
2022-11-09T04:51:05.016Z,34.27
2022-11-09T04:53:31.793Z,36.37
2022-11-09T04:55:58.569Z,37.67
2022-11-09T04:58:25.558Z,37.57
2022-11-09T05:00:54.282Z,35.40
2022-11-09T05:03:21.817Z,37.77
2022-11-09T05:05:49.056Z,39.67
2022-11-09T05:08:15.864Z,38.50
2022-11-09T05:10:42.634Z,35.23
2022-11-09T05:13:11.490Z,36.53
2022-11-09T05:15:38.355Z,36.17
2022-11-09T05:18:05.350Z,39.80
2022-11-09T05:20:32.226Z,39.13
2022-11-09T05:23:18.469Z,32.97
2022-11-09T05:25:45.577Z,38.33
2022-11-09T05:28:12.481Z,39.13
2022-11-09T05:30:40.285Z,39.90
2022-11-09T05:33:07.094Z,43.20
2022-11-09T05:35:34.264Z,45.90
2022-11-09T05:38:01.088Z,54.23
2022-11-09T05:40:27.995Z,48.17
2022-11-09T05:42:56.093Z,46.63
2022-11-09T05:45:42.039Z,45.73
2022-11-09T05:48:09.253Z,37.03
2022-11-09T05:50:36.168Z,31.10
2022-11-09T05:53:02.932Z,38.67
2022-11-09T05:55:29.691Z,39.13
2022-11-09T05:57:56.627Z,43.57
2022-11-09T06:00:23.568Z,41.63
2022-11-09T06:02:50.506Z,47.33
2022-11-09T06:05:17.609Z,31.83
2022-11-09T06:07:44.416Z,35.90
2022-11-09T06:10:11.428Z,41.43
2022-11-09T06:12:38.308Z,41.93
2022-11-09T06:15:05.751Z,45.37
2022-11-09T06:17:32.529Z,43.03
2022-11-09T06:19:59.301Z,46.93
2022-11-09T06:22:26.100Z,46.20
2022-11-09T06:24:52.854Z,45.17
2022-11-09T06:27:19.621Z,51.63
2022-11-09T06:29:46.448Z,38.83
2022-11-09T06:32:13.217Z,45.73
2022-11-09T06:34:40.133Z,48.73
2022-11-09T06:37:06.893Z,48.70
2022-11-09T06:39:33.654Z,47.00
2022-11-09T06:42:00.785Z,50.60
2022-11-09T06:44:27.540Z,49.43
2022-11-09T06:46:54.317Z,49.00
2022-11-09T06:49:21.112Z,50.70
2022-11-09T06:51:47.870Z,50.20
2022-11-09T06:54:14.646Z,53.17
2022-11-09T06:56:41.517Z,54.83
2022-11-09T06:59:09.114Z,54.10
2022-11-09T07:01:37.496Z,55.97
2022-11-09T07:04:04.427Z,56.73
2022-11-09T07:06:31.260Z,52.73
2022-11-09T07:08:58.069Z,53.57
2022-11-09T07:11:24.924Z,59.87
2022-11-09T07:13:57.113Z,58.17
2022-11-09T07:16:24.456Z,55.37
2022-11-09T07:18:51.212Z,60.90
2022-11-09T07:21:18.064Z,60.93
2022-11-09T07:23:46.636Z,52.67
2022-11-09T07:26:13.437Z,54.97
2022-11-09T07:28:40.370Z,58.33
2022-11-09T07:31:07.416Z,63.13
2022-11-09T07:33:34.264Z,68.23
2022-11-09T07:36:01.707Z,64.83
2022-11-09T07:38:29.139Z,63.63
2022-11-09T07:40:59.670Z,60.90
2022-11-09T07:43:26.541Z,60.20
2022-11-09T07:45:53.296Z,56.33
2022-11-09T07:48:20.114Z,58.63
2022-11-09T07:50:47.912Z,56.67
2022-11-09T07:53:15.122Z,50.73
2022-11-09T07:55:42.183Z,52.77
2022-11-09T07:58:12.862Z,55.83
2022-11-09T08:00:41.097Z,54.13
2022-11-09T08:03:08.227Z,55.63
2022-11-09T08:05:35.172Z,50.13
2022-11-09T08:08:03.954Z,50.90
2022-11-09T08:10:31.671Z,51.83
2022-11-09T08:13:13.461Z,50.63
2022-11-09T08:15:40.874Z,46.63
2022-11-09T08:18:10.458Z,52.17
2022-11-09T08:20:37.330Z,52.67
2022-11-09T08:23:04.979Z,48.03
2022-11-09T08:25:35.714Z,48.43
2022-11-09T08:28:03.674Z,48.50
2022-11-09T08:30:30.721Z,48.47
2022-11-09T08:32:58.730Z,44.17
2022-11-09T08:35:25.702Z,41.67
2022-11-09T08:37:52.956Z,40.20
2022-11-09T08:40:21.666Z,37.63
2022-11-09T08:42:48.604Z,38.97
2022-11-09T08:45:15.637Z,36.07
2022-11-09T08:47:42.569Z,38.17
2022-11-09T08:50:10.141Z,36.50
2022-11-09T08:52:37.146Z,36.77
2022-11-09T08:55:04.405Z,35.77
2022-11-09T08:57:31.314Z,40.37
2022-11-09T08:59:58.105Z,44.70
2022-11-09T09:02:24.900Z,42.80
2022-11-09T09:04:51.709Z,39.20
2022-11-09T09:07:18.576Z,40.57
2022-11-09T09:09:45.364Z,42.13
2022-11-09T09:12:12.209Z,43.20
2022-11-09T09:14:39.001Z,38.67
2022-11-09T09:17:05.780Z,41.50
2022-11-09T09:19:32.657Z,38.57
2022-11-09T09:22:00.561Z,36.00
2022-11-09T09:24:27.372Z,35.53
2022-11-09T09:26:54.139Z,35.80
2022-11-09T09:29:21.080Z,37.27
2022-11-09T09:31:47.866Z,42.50
2022-11-09T09:34:15.254Z,39.80
2022-11-09T09:36:47.305Z,43.50
2022-11-09T09:39:14.702Z,44.60
2022-11-09T09:41:53.258Z,39.33
2022-11-09T09:44:30.816Z,44.83
2022-11-09T09:47:24.933Z,31.87
2022-11-09T09:50:03.240Z,29.43
2022-11-09T09:53:17.597Z,32.80
2022-11-09T09:55:40.863Z,35.40
2022-11-09T09:58:25.633Z,38.77
2022-11-09T10:00:59.039Z,38.50
2022-11-09T10:03:26.180Z,37.83
2022-11-09T10:06:20.125Z,34.43
2022-11-09T10:08:52.708Z,53.40
2022-11-09T10:11:48.834Z,59.63
2022-11-09T10:14:26.792Z,56.33
2022-11-09T10:16:59.466Z,52.67
2022-11-09T10:19:38.646Z,60.13
2022-11-09T10:22:24.994Z,28.93
2022-11-09T10:25:23.534Z,48.23
2022-11-09T10:27:54.013Z,56.87
2022-11-09T10:30:21.655Z,58.27
2022-11-09T10:32:54.555Z,66.87
2022-11-09T10:35:30.482Z,51.93
2022-11-09T10:37:57.418Z,52.87
2022-11-09T10:40:48.309Z,78.13
2022-11-09T10:43:15.407Z,75.43
2022-11-09T10:45:43.372Z,57.23
2022-11-09T10:48:11.773Z,61.03
2022-11-09T10:50:49.467Z,56.63
2022-11-09T10:53:21.237Z,51.20
2022-11-09T10:56:20.763Z,53.90
2022-11-09T10:58:49.192Z,51.72
2022-11-09T11:01:17.039Z,42.53
2022-11-09T11:03:44.191Z,40.50
2022-11-09T11:06:20.687Z,40.63
2022-11-09T11:08:51.151Z,40.08
2022-11-09T11:11:38.045Z,36.57
2022-11-09T11:14:34.942Z,32.30
2022-11-09T11:17:01.813Z,27.83
2022-11-09T11:19:47.066Z,25.83
2022-11-09T11:22:19.711Z,23.73
2022-11-09T11:24:51.146Z,21.90
2022-11-09T11:27:26.236Z,20.65
2022-11-09T11:29:58.420Z,21.45
2022-11-09T11:32:25.337Z,21.48
2022-11-09T11:35:01.026Z,21.23
2022-11-09T11:37:46.240Z,19.40
2022-11-09T11:40:30.721Z,21.20
2022-11-09T11:43:28.122Z,21.63
2022-11-09T11:46:12.682Z,21.95
2022-11-09T11:48:42.391Z,22.77
2022-11-09T11:51:18.653Z,21.37
2022-11-09T11:53:56.841Z,20.13
2022-11-09T11:56:46.708Z,22.33
2022-11-09T11:59:22.478Z,24.83
2022-11-09T12:02:10.610Z,25.23
2022-11-09T12:04:53.164Z,21.00
2022-11-09T12:07:26.000Z,18.55
2022-11-09T12:10:10.669Z,16.15
2022-11-09T12:13:05.837Z,17.80
2022-11-09T12:15:46.237Z,16.38
2022-11-09T12:18:24.939Z,14.02
2022-11-09T12:21:02.466Z,12.77
2022-11-09T12:23:44.674Z,15.70
2022-11-09T12:26:38.838Z,15.05
2022-11-09T12:29:11.706Z,12.02
2022-11-09T12:32:07.814Z,13.00
2022-11-09T12:34:56.990Z,13.05
2022-11-09T12:37:25.601Z,14.82
2022-11-09T12:39:55.618Z,18.33
2022-11-09T12:42:33.243Z,19.90
2022-11-09T12:45:15.261Z,15.25
2022-11-09T12:47:44.199Z,16.10
2022-11-09T12:50:18.784Z,14.85
2022-11-09T12:52:46.718Z,15.48
2022-11-09T12:55:19.452Z,16.87
2022-11-09T12:57:46.797Z,18.00
2022-11-09T13:00:35.385Z,18.60
2022-11-09T13:03:04.233Z,18.85
2022-11-09T13:05:32.007Z,21.58
2022-11-09T13:08:02.170Z,22.98
2022-11-09T13:10:38.843Z,21.83
2022-11-09T13:13:11.643Z,23.25
2022-11-09T13:15:39.402Z,23.53
2022-11-09T13:18:24.077Z,23.50
2022-11-09T13:20:56.449Z,24.20
2022-11-09T13:23:47.787Z,25.20
2022-11-09T13:26:32.509Z,24.40
2022-11-09T13:29:21.541Z,22.70
2022-11-09T13:32:12.932Z,18.80
2022-11-09T13:34:52.510Z,18.67
2022-11-09T13:37:41.186Z,17.02
2022-11-09T13:40:33.009Z,15.57
2022-11-09T13:43:12.948Z,19.50
2022-11-09T13:45:44.148Z,13.77
2022-11-09T13:48:29.841Z,12.88
2022-11-09T13:51:20.625Z,13.88
2022-11-09T13:53:48.866Z,9.15
2022-11-09T13:56:32.169Z,10.32
2022-11-09T13:59:22.257Z,11.30
2022-11-09T14:01:57.085Z,15.90
2022-11-09T14:04:37.840Z,11.57
2022-11-09T14:07:10.868Z,7.40
2022-11-09T14:09:53.622Z,15.10
2022-11-09T14:12:31.973Z,11.52
2022-11-09T14:15:17.897Z,16.50
2022-11-09T14:18:07.988Z,13.30
2022-11-09T14:20:39.028Z,14.05
2022-11-09T14:23:18.221Z,14.80
2022-11-09T14:25:45.573Z,12.10
2022-11-09T14:28:23.958Z,12.70
2022-11-09T14:30:50.753Z,12.40
2022-11-09T14:33:28.173Z,9.68
2022-11-09T14:35:59.561Z,11.93
2022-11-09T14:38:36.914Z,15.00
2022-11-09T14:41:03.713Z,10.82
2022-11-09T14:43:33.509Z,14.70
2022-11-09T14:46:04.805Z,11.45
2022-11-09T14:48:33.353Z,14.13
2022-11-09T14:51:01.601Z,14.55
2022-11-09T14:53:30.557Z,10.98
2022-11-09T14:55:58.642Z,15.10
2022-11-09T14:58:25.413Z,13.88
2022-11-09T15:01:28.333Z,12.63
2022-11-09T15:04:17.014Z,14.25
2022-11-09T15:06:51.979Z,14.70
2022-11-09T15:09:20.981Z,13.00
2022-11-09T15:11:48.000Z,16.83
2022-11-09T15:14:27.389Z,14.52
2022-11-09T15:17:24.276Z,10.50
2022-11-09T15:19:59.451Z,13.88
2022-11-09T15:22:54.913Z,12.25
2022-11-09T15:25:30.335Z,14.90
2022-11-09T15:27:59.346Z,10.40
2022-11-09T15:30:29.982Z,17.48
2022-11-09T15:32:58.003Z,11.82
2022-11-09T15:35:25.018Z,11.88
2022-11-09T15:37:53.650Z,9.10
2022-11-09T15:40:22.255Z,14.45
2022-11-09T15:42:49.038Z,15.00
2022-11-09T15:45:18.221Z,18.25
2022-11-09T15:47:54.830Z,13.70
2022-11-09T15:50:23.768Z,15.88
2022-11-09T15:52:50.982Z,13.87
2022-11-09T15:55:21.977Z,9.45
2022-11-09T15:57:50.165Z,11.27
2022-11-09T16:00:20.770Z,10.80
2022-11-09T16:02:48.158Z,14.85
2022-11-09T16:05:15.683Z,11.53
2022-11-09T16:07:52.841Z,16.48
2022-11-09T16:10:20.454Z,14.50
2022-11-09T16:12:47.473Z,19.33
2022-11-09T16:15:14.357Z,16.55
2022-11-09T16:17:41.171Z,12.07
2022-11-09T16:20:08.478Z,19.52
2022-11-09T16:22:35.408Z,22.97
2022-11-09T16:25:02.227Z,21.77
2022-11-09T16:27:48.987Z,18.52
2022-11-09T16:30:16.137Z,14.33
2022-11-09T16:32:42.922Z,18.95
2022-11-09T16:37:56.889Z,20.63
2022-11-09T16:40:23.761Z,14.73
2022-11-09T16:42:51.137Z,13.35
2022-11-09T16:45:17.999Z,17.73
2022-11-09T16:47:47.504Z,20.20
2022-11-09T16:50:14.586Z,20.73
2022-11-09T16:52:41.427Z,17.83
2022-11-09T16:55:09.433Z,18.50
2022-11-09T16:57:36.285Z,19.90
2022-11-09T17:00:04.836Z,20.57
2022-11-09T17:02:31.634Z,13.63
2022-11-09T17:04:58.653Z,19.80
2022-11-09T17:07:25.467Z,15.20
2022-11-09T17:09:52.245Z,12.70
2022-11-09T17:12:19.094Z,18.77
2022-11-09T17:14:45.878Z,20.70
2022-11-09T17:17:12.962Z,18.57
2022-11-09T17:19:41.171Z,14.70
2022-11-09T17:22:08.057Z,21.13
2022-11-09T17:24:34.904Z,17.47
2022-11-09T17:27:01.773Z,14.70
2022-11-09T17:29:28.592Z,16.60
2022-11-09T17:31:55.399Z,20.05
2022-11-09T17:34:22.193Z,12.80
2022-11-09T17:37:03.787Z,18.80
2022-11-09T17:39:31.753Z,18.60
2022-11-09T17:41:58.543Z,18.73
2022-11-09T17:44:26.328Z,12.47
2022-11-09T17:46:53.183Z,14.97
2022-11-09T17:49:19.952Z,16.67
2022-11-09T17:51:46.753Z,14.40
2022-11-09T17:54:15.077Z,18.53
2022-11-09T17:56:42.016Z,20.07
2022-11-09T17:59:08.866Z,17.97
2022-11-09T18:01:41.178Z,21.80
2022-11-09T18:04:09.763Z,19.73
2022-11-09T18:06:36.722Z,19.07
2022-11-09T18:09:39.166Z,17.43
2022-11-09T18:11:52.770Z,18.93
2022-11-09T18:14:19.853Z,23.83
2022-11-09T18:16:46.788Z,21.07
2022-11-09T18:19:13.671Z,21.73
2022-11-09T18:21:41.427Z,25.73
2022-11-09T18:24:08.645Z,24.97
2022-11-09T18:26:35.421Z,21.27
2022-11-09T18:29:03.211Z,21.77
2022-11-09T18:31:30.077Z,24.80
2022-11-09T18:33:56.899Z,20.37
2022-11-09T18:36:23.832Z,29.97
2022-11-09T18:38:52.100Z,30.60
2022-11-09T18:41:20.754Z,31.47
2022-11-09T18:43:47.763Z,29.03
2022-11-09T18:46:15.544Z,33.50
2022-11-09T18:48:42.498Z,31.50
2022-11-09T18:51:09.542Z,29.67
2022-11-09T18:53:41.606Z,36.63
2022-11-09T18:56:21.692Z,35.93
2022-11-09T18:58:49.420Z,37.20
2022-11-09T19:01:16.601Z,37.40
2022-11-09T19:03:43.406Z,39.90
2022-11-09T19:06:12.861Z,36.87
2022-11-09T19:08:59.206Z,41.70
2022-11-09T19:11:26.090Z,44.10
2022-11-09T19:13:53.666Z,46.27
2022-11-09T19:16:21.667Z,48.20
2022-11-09T19:18:48.546Z,47.87
2022-11-09T19:21:18.190Z,46.23
2022-11-09T19:23:44.962Z,50.27
2022-11-09T19:26:12.080Z,49.07
2022-11-09T19:28:38.911Z,51.97
2022-11-09T19:31:05.758Z,51.37
2022-11-09T19:33:32.542Z,56.13
2022-11-09T19:36:28.201Z,58.70
2022-11-09T19:38:48.511Z,59.27
2022-11-09T19:41:15.538Z,63.83
2022-11-09T19:43:42.310Z,61.20
2022-11-09T19:46:10.090Z,59.30
2022-11-09T19:48:37.196Z,59.93
2022-11-09T19:51:04.609Z,60.53
2022-11-09T19:53:31.385Z,65.87
2022-11-09T19:55:59.791Z,70.23
2022-11-09T19:58:26.903Z,66.43
2022-11-09T20:01:05.085Z,68.77
2022-11-09T20:03:32.107Z,71.47
2022-11-09T20:05:59.964Z,73.30
2022-11-09T20:08:27.015Z,71.60
2022-11-09T20:10:54.333Z,70.53
2022-11-09T20:13:21.983Z,77.90
2022-11-09T20:15:48.817Z,75.50
2022-11-09T20:18:15.811Z,78.97
2022-11-09T20:20:42.609Z,80.03
2022-11-09T20:23:09.402Z,80.47
2022-11-09T20:25:36.237Z,74.60
2022-11-09T20:28:03.065Z,72.57
2022-11-09T20:30:29.882Z,69.90
2022-11-09T20:32:56.797Z,68.00
2022-11-09T20:35:23.565Z,72.80
2022-11-09T20:37:50.402Z,69.20
2022-11-09T20:40:17.250Z,72.73
2022-11-09T20:42:44.101Z,74.37
2022-11-09T20:45:11.006Z,76.33
2022-11-09T20:48:03.233Z,71.83
2022-11-09T20:50:24.628Z,77.40
2022-11-09T20:52:51.745Z,88.00
2022-11-09T20:55:18.661Z,88.13
2022-11-09T20:57:45.462Z,82.07
2022-11-09T21:00:12.722Z,83.27
2022-11-09T21:02:39.562Z,82.07
2022-11-09T21:05:06.622Z,77.93
2022-11-09T21:07:33.425Z,78.53
2022-11-09T21:10:00.250Z,83.30
2022-11-09T21:12:27.782Z,81.67
2022-11-09T21:14:54.605Z,81.40
2022-11-09T21:17:21.523Z,84.50
2022-11-09T21:19:48.343Z,89.00
2022-11-09T21:22:15.181Z,89.50
2022-11-09T21:25:00.700Z,91.80
2022-11-09T21:27:48.137Z,90.23
2022-11-09T21:30:16.987Z,91.07
2022-11-09T21:32:43.799Z,95.47
2022-11-09T21:35:10.809Z,87.03
2022-11-09T21:37:37.647Z,90.00
2022-11-09T21:40:04.915Z,86.20
2022-11-09T21:42:31.726Z,85.00
2022-11-09T21:44:58.525Z,91.43
2022-11-09T21:47:25.312Z,94.37
2022-11-09T21:49:52.112Z,97.30
2022-11-09T21:52:21.010Z,93.93
2022-11-09T21:54:47.861Z,100.53
2022-11-09T21:57:14.657Z,100.47
2022-11-09T21:59:41.598Z,102.50
2022-11-09T22:02:09.668Z,103.20
2022-11-09T22:04:36.492Z,102.50
2022-11-09T22:07:03.371Z,107.13
2022-11-09T22:09:50.557Z,112.23
2022-11-09T22:12:35.845Z,111.10
2022-11-09T22:15:21.242Z,119.20
2022-11-09T22:17:48.051Z,117.67
2022-11-09T22:20:33.403Z,125.13
2022-11-09T22:23:00.215Z,123.27
2022-11-09T22:25:27.175Z,119.93
2022-11-09T22:27:55.844Z,123.83
2022-11-09T22:30:22.755Z,117.37
2022-11-09T22:32:49.589Z,119.13
2022-11-09T22:35:16.466Z,126.00
2022-11-09T22:37:43.258Z,122.33
2022-11-09T22:40:10.423Z,120.63
2022-11-09T22:42:37.226Z,120.53
2022-11-09T22:45:04.323Z,115.50
2022-11-09T22:47:31.196Z,116.67
2022-11-09T22:49:57.946Z,126.80
2022-11-09T22:52:24.884Z,127.93
2022-11-09T22:54:51.696Z,121.63
2022-11-09T22:57:18.472Z,117.27
2022-11-09T22:59:45.222Z,124.03
2022-11-09T23:02:13.090Z,111.97
2022-11-09T23:04:39.849Z,117.10
2022-11-09T23:07:06.772Z,120.10
2022-11-09T23:09:33.612Z,113.40
2022-11-09T23:12:00.402Z,120.07
2022-11-09T23:14:45.934Z,110.37
2022-11-09T23:17:32.646Z,119.47
2022-11-09T23:19:59.450Z,128.10
2022-11-09T23:22:26.215Z,118.83
2022-11-09T23:25:11.646Z,119.50
2022-11-09T23:27:38.520Z,123.83
2022-11-09T23:30:05.769Z,124.33
2022-11-09T23:32:32.533Z,119.97
2022-11-09T23:34:59.385Z,118.83
2022-11-09T23:37:26.138Z,117.27
2022-11-09T23:39:52.906Z,123.27
2022-11-09T23:42:20.789Z,119.70
2022-11-09T23:44:47.594Z,113.57
2022-11-09T23:47:14.412Z,127.87
2022-11-09T23:49:41.226Z,124.13
2022-11-09T23:52:08.712Z,114.23
2022-11-09T23:54:35.524Z,91.57
2022-11-09T23:57:02.289Z,105.77
2022-11-09T23:59:29.042Z,111.57
